Terminal Aerodrome Forecast
Issued by NWS

Home | Current Version | Previous Version | Text Only | Print | Product List | Glossary On
Versions: 1 2 3 4 5 6 7 8 9 10 11 12 13 14 15 16 17 18 19 20 21 22 23 24 25 26 27 28 29 30
000
FTUS43 KGRB 061400 AAA
TAFRHI
TAF AMD
KRHI 061404Z 0614/0712 14006KT P6SM BKN025 OVC050
      TEMPO 0614/0618 -SHRA BKN012
     FM061800 15009KT P6SM SCT030 BKN050
     FM070400 14007KT 5SM BR BKN015 OVC040
     FM071000 16008KT 3SM BR VCSH BKN009 OVC035 WS015/20035KT=

USA.gov is the U.S. government's official web portal to all federal, state and local government web resources and services.